Miami, Florida
Traffic Map
Current Weather Conditions
Miami, Florida
Broken Clouds
Broken Clouds
30°
Feels Like: 34°
Wind Chill: 30° Ceiling: 25000
Heat Index: 34° Visibility: 10mi
Dew Point: 23° Wind: 7mph
Humidity: 65% Direction: 90° (E)
Pressure: 30.15in Gusts: 0mph
Raw Report DataKMIA 011253Z 09006KT 10SM FEW025 FEW180 BKN250 30/23 A3015 RMK AO2 SLP209 T03000228
Traffic Incident Summary
Active as of:
Severity:
Category:
InformationThere was an issue retrieving the traffic information for this location. Please try a different location or try again shortly.
Advertisements
Track Severe Weather on mobile